Time;durP1;ratioP1;P1;durP2;ratioP2;P2;SDS_P1;SDS_P2;PMS_P1;PMS_P2;Temp;Humidity;BMP_temperature;BMP_pressure;BME280_temperature;BME280_humidity;BME280_pressure;Samples;Min_cycle;Max_cycle;Signal;HPM_P1;HPM_P2
2021/07/28 00:02:13;;;;;;;14.60;9.77;;;;;;;19.05;71.13;99290.00;6072933;23;20023;-85
2021/07/28 00:04:48;;;;;;;13.18;9.52;;;;;;;18.98;71.01;99292.44;6073464;23;20097;-85
2021/07/28 00:07:18;;;;;;;12.93;9.30;;;;;;;19.00;71.34;99287.81;6096955;23;20022;-85
2021/07/28 00:09:47;;;;;;;13.93;11.02;;;;;;;18.98;71.36;99281.78;6073257;23;20030;-85
2021/07/28 00:12:13;;;;;;;15.10;11.20;;;;;;;18.97;71.43;99286.28;6073181;23;20105;-85
2021/07/28 00:15:17;;;;;;;15.05;10.85;;;;;;;18.91;71.48;99283.41;6073454;23;20033;-85
2021/07/28 00:17:48;;;;;;;18.92;11.20;;;;;;;18.94;71.91;99278.59;6073082;23;20102;-85
2021/07/28 00:23:15;;;;;;;13.45;11.02;;;;;;;18.94;71.68;99277.75;6098562;23;20101;-85
2021/07/28 00:26:04;;;;;;;17.23;11.98;;;;;;;18.89;72.17;99271.03;6073361;23;20409;-85
2021/07/28 00:28:31;;;;;;;19.00;12.98;;;;;;;18.95;72.15;99272.25;6073329;23;20098;-85
2021/07/28 00:34:41;;;;;;;17.15;12.52;;;;;;;18.99;72.05;99265.63;6098111;23;20418;-85
2021/07/28 00:37:30;;;;;;;18.02;13.02;;;;;;;18.95;72.07;99266.94;6073339;23;20413;-85
2021/07/28 00:40:17;;;;;;;17.38;13.68;;;;;;;18.95;72.12;99266.09;6072800;23;20029;-85
2021/07/28 00:42:43;;;;;;;23.13;13.65;;;;;;;18.99;71.93;99267.47;6072936;23;20033;-85
2021/07/28 00:45:10;;;;;;;19.80;13.95;;;;;;;18.97;72.37;99254.28;6073031;23;20389;-85
2021/07/28 00:47:46;;;;;;;19.58;15.30;;;;;;;18.95;72.14;99255.44;6072721;23;20058;-85
2021/07/28 00:50:13;;;;;;;21.83;14.45;;;;;;;18.98;72.69;99255.09;6073268;23;20470;-85
2021/07/28 00:53:02;;;;;;;19.95;15.45;;;;;;;18.93;72.46;99247.59;6073029;23;20053;-85
2021/07/28 00:55:30;;;;;;;17.63;14.38;;;;;;;19.00;72.54;99251.28;6072487;23;20022;-85
2021/07/28 00:58:13;;;;;;;17.95;14.18;;;;;;;18.98;72.58;99252.44;6072708;23;20101;-85
2021/07/28 01:01:03;;;;;;;20.02;15.50;;;;;;;19.00;72.50;99253.13;6072630;23;20101;-85
2021/07/28 01:03:30;;;;;;;24.25;15.43;;;;;;;19.05;72.82;99248.19;6073042;23;20033;-85
2021/07/28 01:05:58;;;;;;;19.23;15.90;;;;;;;19.07;72.70;99248.91;6072916;23;20098;-85
2021/07/28 01:08:28;;;;;;;22.90;16.52;;;;;;;19.08;73.10;99245.22;6073093;23;20030;-85
2021/07/28 01:11:26;;;;;;;17.05;14.63;;;;;;;19.06;72.74;99247.19;6072457;23;20061;-85
2021/07/28 01:13:55;;;;;;;20.83;15.60;;;;;;;19.13;72.66;99248.25;6072141;23;20097;-85
2021/07/28 01:16:25;;;;;;;19.67;15.13;;;;;;;19.14;72.93;99243.78;6098533;23;20026;-85
2021/07/28 01:18:52;;;;;;;21.80;15.05;;;;;;;19.17;72.60;99247.97;6072689;23;20022;-85
2021/07/28 01:21:21;;;;;;;19.30;15.50;;;;;;;19.16;72.89;99238.25;6072387;23;20097;-85
2021/07/28 01:23:50;;;;;;;21.13;14.95;;;;;;;19.16;72.80;99247.13;6072729;23;20405;-85
2021/07/28 01:26:18;;;;;;;21.38;15.10;;;;;;;19.15;72.73;99234.78;6097713;23;20101;-85
2021/07/28 01:29:10;;;;;;;21.08;15.32;;;;;;;19.09;72.29;99238.03;6072386;23;20026;-85
2021/07/28 01:32:19;;;;;;;21.55;15.73;;;;;;;19.08;72.24;99239.03;6072376;23;20101;-85
2021/07/28 01:34:46;;;;;;;20.52;14.40;;;;;;;19.13;72.32;99242.06;6072590;23;20093;-85
2021/07/28 01:37:31;;;;;;;23.15;14.13;;;;;;;19.08;72.16;99244.38;6072472;23;20057;-85
2021/07/28 01:40:10;;;;;;;22.33;14.70;;;;;;;19.07;72.42;99232.91;6072533;23;20109;-85
2021/07/28 01:42:41;;;;;;;16.10;14.23;;;;;;;19.10;72.45;99245.09;6072037;23;20358;-85
2021/07/28 01:45:09;;;;;;;20.88;14.70;;;;;;;19.10;72.54;99243.22;6071895;23;20085;-85
2021/07/28 01:47:41;;;;;;;23.30;14.23;;;;;;;19.05;72.29;99242.88;6072112;23;20097;-85
2021/07/28 01:50:09;;;;;;;23.83;14.65;;;;;;;19.08;72.32;99236.38;6072635;23;20128;-85
2021/07/28 01:52:42;;;;;;;20.90;13.77;;;;;;;19.03;72.31;99236.84;6072194;23;20022;-85
2021/07/28 01:55:10;;;;;;;19.92;14.70;;;;;;;19.04;72.23;99238.50;6072087;23;20098;-85
2021/07/28 01:57:53;;;;;;;17.38;13.23;;;;;;;19.02;72.54;99235.13;6075744;23;20030;-85
2021/07/28 02:00:21;;;;;;;21.75;14.35;;;;;;;19.01;72.58;99233.47;6072501;23;20104;-85
2021/07/28 02:02:50;;;;;;;16.85;14.13;;;;;;;18.98;72.74;99231.94;6072144;23;20026;-85
2021/07/28 02:05:16;;;;;;;18.25;14.00;;;;;;;18.99;72.38;99235.47;6072467;23;20104;-85
2021/07/28 02:07:43;;;;;;;16.70;14.00;;;;;;;18.99;72.76;99232.81;6072498;23;20053;-85
2021/07/28 02:10:24;;;;;;;19.70;13.68;;;;;;;18.95;72.63;99234.91;6072313;23;20473;-85
2021/07/28 02:12:51;;;;;;;17.92;12.75;;;;;;;19.01;72.61;99225.47;6072208;23;20101;-85
2021/07/28 02:15:30;;;;;;;19.98;14.82;;;;;;;18.97;72.72;99227.63;6071916;23;20058;-85
2021/07/28 02:17:57;;;;;;;19.58;14.63;;;;;;;19.00;72.62;99224.63;6072176;23;20028;-85
2021/07/28 02:20:32;;;;;;;21.70;14.32;;;;;;;18.97;72.30;99232.09;6072232;23;20037;-85
2021/07/28 02:22:59;;;;;;;19.23;14.43;;;;;;;18.98;72.54;99233.78;6071865;23;20105;-85
2021/07/28 02:26:00;;;;;;;18.60;13.52;;;;;;;18.91;72.45;99236.22;6071812;23;20034;-85
2021/07/28 02:28:29;;;;;;;17.63;13.88;;;;;;;18.94;72.37;99243.06;6072007;23;20106;-85
2021/07/28 02:31:11;;;;;;;18.40;14.40;;;;;;;18.86;72.62;99238.53;6071965;23;20022;-85
2021/07/28 02:34:25;;;;;;;21.17;14.15;;;;;;;18.86;72.31;99241.19;6071879;23;20101;-85
2021/07/28 02:36:51;;;;;;;16.60;14.50;;;;;;;18.89;72.57;99230.22;6072049;23;20106;-85
2021/07/28 02:39:18;;;;;;;18.60;13.57;;;;;;;18.88;72.24;99234.69;6071887;23;20062;-85
2021/07/28 02:42:20;;;;;;;23.88;14.18;;;;;;;18.83;72.41;99241.47;6097133;23;20054;-85
2021/07/28 02:44:46;;;;;;;18.40;14.07;;;;;;;18.87;72.61;99229.53;6097002;23;20030;-85
2021/07/28 02:47:13;;;;;;;17.90;14.18;;;;;;;18.84;72.66;99227.19;6071826;23;20026;-85
2021/07/28 02:49:46;;;;;;;18.40;13.70;;;;;;;18.80;72.56;99229.31;6072228;23;20054;-85
2021/07/28 02:52:13;;;;;;;18.30;12.55;;;;;;;18.82;73.01;99219.34;6072045;23;20387;-85
2021/07/28 02:54:39;;;;;;;18.52;14.20;;;;;;;18.81;72.78;99228.34;6071582;23;20101;-85
2021/07/28 02:57:51;;;;;;;18.40;13.80;;;;;;;18.74;72.71;99217.44;6071633;23;20049;-85
2021/07/28 03:00:18;;;;;;;15.60;11.82;;;;;;;18.80;72.93;99225.81;6071897;23;20061;-85
2021/07/28 03:02:44;;;;;;;18.05;13.75;;;;;;;18.78;72.97;99217.97;6071857;23;20137;-85
2021/07/28 03:05:21;;;;;;;19.23;12.90;;;;;;;18.73;72.58;99222.94;6072091;23;20354;-85
2021/07/28 03:07:48;;;;;;;15.45;13.32;;;;;;;18.76;72.67;99227.94;6071885;23;20065;-85
2021/07/28 03:10:15;;;;;;;15.40;11.93;;;;;;;18.78;72.94;99227.78;6071826;23;20097;-85
2021/07/28 03:12:41;;;;;;;18.42;11.98;;;;;;;18.75;73.10;99228.94;6071832;23;20073;-85
2021/07/28 03:15:55;;;;;;;19.63;13.02;;;;;;;18.71;72.71;99230.22;6071993;23;20022;-85
2021/07/28 03:18:22;;;;;;;17.45;12.20;;;;;;;18.75;73.09;99227.13;6071704;23;20101;-85
2021/07/28 03:21:06;;;;;;;20.15;13.55;;;;;;;18.71;72.72;99231.06;6071727;23;20058;-85
2021/07/28 03:23:33;;;;;;;17.83;13.20;;;;;;;18.77;73.22;99231.44;6096846;23;20022;-85
2021/07/28 03:26:05;;;;;;;18.50;13.25;;;;;;;18.73;72.79;99228.25;6071692;23;20022;-85
2021/07/28 03:28:32;;;;;;;19.13;12.65;;;;;;;18.77;72.90;99231.44;6071781;23;20065;-85
2021/07/28 03:30:58;;;;;;;20.95;13.00;;;;;;;18.75;73.29;99221.78;6071988;23;20058;-85
2021/07/28 03:33:25;;;;;;;19.00;14.25;;;;;;;18.75;73.14;99220.94;6071749;23;20025;-85
2021/07/28 03:36:43;;;;;;;16.40;12.48;;;;;;;18.70;72.67;99226.75;6072818;23;20049;-85
2021/07/28 03:39:10;;;;;;;16.95;12.27;;;;;;;18.74;73.00;99227.25;6073762;23;20434;-85
2021/07/28 03:41:37;;;;;;;20.77;12.82;;;;;;;18.73;73.04;99225.59;6073369;23;20102;-85
2021/07/28 03:44:04;;;;;;;24.23;13.63;;;;;;;18.71;72.68;99224.91;6073755;23;20408;-85
2021/07/28 03:46:30;;;;;;;17.17;12.95;;;;;;;18.69;72.98;99230.38;6073578;23;20029;-85
2021/07/28 03:48:57;;;;;;;18.20;12.65;;;;;;;18.69;73.11;99229.56;6073343;23;20026;-85
2021/07/28 03:52:03;;;;;;;17.10;12.38;;;;;;;18.63;72.70;99233.66;6073393;23;20105;-85
2021/07/28 03:54:30;;;;;;;15.45;11.88;;;;;;;18.68;73.02;99235.84;6073120;23;20101;-84
2021/07/28 03:57:13;;;;;;;18.80;12.88;;;;;;;18.62;72.89;99234.66;6073240;23;20023;-85
2021/07/28 03:59:40;;;;;;;16.63;11.45;;;;;;;18.66;73.04;99228.03;6073313;23;20506;-85
2021/07/28 04:02:20;;;;;;;16.60;11.73;;;;;;;18.61;72.60;99233.81;6098228;23;20090;-85
2021/07/28 04:04:47;;;;;;;18.70;12.25;;;;;;;18.64;72.83;99227.34;6072979;23;20022;-85
2021/07/28 04:07:32;;;;;;;17.67;12.57;;;;;;;18.59;72.62;99226.97;6073514;23;20023;-85
2021/07/28 04:09:59;;;;;;;17.60;12.15;;;;;;;18.61;72.83;99228.50;6073042;23;20026;-85
2021/07/28 04:12:37;;;;;;;15.70;11.35;;;;;;;18.57;72.75;99228.94;6073269;23;20109;-85
2021/07/28 04:15:04;;;;;;;17.20;11.77;;;;;;;18.59;73.06;99222.50;6072976;23;20101;-85
2021/07/28 04:17:50;;;;;;;16.10;11.68;;;;;;;18.56;72.96;99228.13;6073439;23;20101;-85
2021/07/28 04:20:17;;;;;;;16.35;12.15;;;;;;;18.62;73.47;99218.69;6073021;23;20074;-85
2021/07/28 04:22:46;;;;;;;21.23;11.68;;;;;;;18.61;73.35;99220.50;6073148;23;20022;-85
2021/07/28 04:25:13;;;;;;;15.85;11.65;;;;;;;18.64;73.54;99213.19;6098179;23;20109;-85
2021/07/28 04:28:10;;;;;;;16.08;12.02;;;;;;;18.59;73.02;99208.31;6073265;23;20101;-85
2021/07/28 04:30:37;;;;;;;17.52;11.93;;;;;;;18.65;73.28;99206.88;6072914;23;20029;-85
2021/07/28 04:33:28;;;;;;;16.00;11.35;;;;;;;18.60;72.93;99207.31;6073064;23;20506;-85
2021/07/28 04:35:55;;;;;;;17.05;11.10;;;;;;;18.64;73.20;99210.53;6072552;23;20093;-85
2021/07/28 04:38:31;;;;;;;14.48;10.18;;;;;;;18.61;73.04;99211.66;6072802;23;20097;-85
2021/07/28 04:41:03;;;;;;;15.32;10.18;;;;;;;18.60;72.80;99216.16;6072709;23;20113;-85
2021/07/28 04:43:30;;;;;;;13.40;9.13;;;;;;;18.64;73.62;99216.69;6073101;23;20019;-85
2021/07/28 04:46:02;;;;;;;12.73;10.25;;;;;;;18.61;73.15;99215.16;6096438;23;20080;-85
2021/07/28 04:48:49;;;;;;;14.80;10.55;;;;;;;18.59;73.12;99217.16;6097770;23;20914;-85
2021/07/28 04:51:16;;;;;;;17.83;10.35;;;;;;;18.64;73.50;99216.69;6073224;23;20097;-85
2021/07/28 04:53:57;;;;;;;16.67;11.73;;;;;;;18.61;73.38;99217.81;6072954;23;20105;-85
2021/07/28 04:56:24;;;;;;;13.48;10.50;;;;;;;18.67;73.73;99212.88;6072665;23;20022;-85
2021/07/28 04:59:09;;;;;;;16.42;10.65;;;;;;;18.65;73.44;99209.53;6072984;23;20367;-85
2021/07/28 05:01:35;;;;;;;15.10;10.43;;;;;;;18.70;73.85;99213.41;6072717;23;20106;-85
2021/07/28 05:04:09;;;;;;;14.13;10.45;;;;;;;18.70;73.33;99209.91;6072831;23;20441;-85
2021/07/28 05:06:40;;;;;;;14.90;10.38;;;;;;;18.74;73.87;99211.28;6072606;23;20053;-85
2021/07/28 05:09:27;;;;;;;15.68;9.82;;;;;;;18.71;73.16;99212.41;6072452;23;20041;-85
2021/07/28 05:11:53;;;;;;;16.67;11.00;;;;;;;18.78;73.85;99211.78;6072449;23;20023;-85
2021/07/28 05:14:31;;;;;;;14.40;10.38;;;;;;;18.75;73.48;99213.78;6072410;23;20033;-85
2021/07/28 05:16:58;;;;;;;14.20;10.18;;;;;;;18.83;74.02;99214.81;6072582;23;20109;-85
2021/07/28 05:19:49;;;;;;;14.07;10.02;;;;;;;18.81;73.36;99211.47;6072819;23;20030;-85
2021/07/28 05:22:16;;;;;;;16.25;10.90;;;;;;;18.91;74.12;99222.06;6072858;23;20093;-85
2021/07/28 05:24:56;;;;;;;12.35;10.20;;;;;;;18.91;73.53;99224.75;6072800;23;20389;-85
2021/07/28 05:27:22;;;;;;;15.95;10.20;;;;;;;18.98;73.69;99221.28;6072939;23;20127;-85
2021/07/28 05:30:05;;;;;;;13.13;10.18;;;;;;;18.97;73.30;99227.63;6072798;23;20030;-85
2021/07/28 05:32:32;;;;;;;14.07;10.13;;;;;;;19.05;73.76;99217.97;6072335;23;20053;-85
2021/07/28 05:35:06;;;;;;;15.43;10.43;;;;;;;19.07;73.06;99224.03;6072673;23;20046;-85
2021/07/28 05:37:32;;;;;;;;;;;;;;;19.11;72.89;99228.06;6073329;23;20109;-85
2021/07/28 05:40:20;;;;;;;13.60;10.05;;;;;;;19.16;72.98;99227.59;6072644;23;19917;-85
2021/07/28 05:42:53;;;;;;;14.43;9.93;;;;;;;19.20;73.26;99227.13;6071971;23;20042;-85
2021/07/28 05:45:37;;;;;;;15.23;10.05;;;;;;;19.21;73.11;99226.13;6071632;23;20022;-82
2021/07/28 05:48:04;;;;;;;13.38;9.48;;;;;;;19.30;73.56;99221.69;6072422;23;20026;-82
2021/07/28 05:50:35;;;;;;;15.02;9.55;;;;;;;19.34;73.14;99228.41;6072551;23;20375;-82
2021/07/28 05:53:01;;;;;;;14.90;9.85;;;;;;;19.42;73.41;99229.41;6072725;23;20064;-82
2021/07/28 05:55:36;;;;;;;15.18;9.90;;;;;;;19.45;72.77;99237.13;6071928;23;20033;-83
2021/07/28 05:58:03;;;;;;;13.65;9.10;;;;;;;19.53;72.95;99231.81;6072600;23;20085;-83
2021/07/28 06:00:37;;;;;;;14.02;10.00;;;;;;;19.54;72.62;99228.16;6071821;23;20106;-82
2021/07/28 06:03:04;;;;;;;12.57;9.82;;;;;;;19.60;72.56;99227.53;6071984;23;20019;-83
2021/07/28 06:05:38;;;;;;;10.93;9.20;;;;;;;19.60;71.90;99235.53;6095298;23;20058;-82
2021/07/28 06:08:05;;;;;;;15.18;9.38;;;;;;;19.65;72.38;99229.69;6072166;23;20046;-82
2021/07/28 06:10:39;;;;;;;11.57;9.43;;;;;;;19.64;72.22;99228.88;6095843;23;20061;-83
2021/07/28 06:13:05;;;;;;;13.40;9.02;;;;;;;19.69;72.65;99225.72;6072081;23;20101;-83
2021/07/28 06:15:33;;;;;;;12.15;8.73;;;;;;;19.72;72.00;99219.22;6071721;23;20097;-82
2021/07/28 06:18:00;;;;;;;13.15;9.07;;;;;;;19.74;72.46;99215.38;6072464;23;20484;-83
2021/07/28 06:20:43;;;;;;;12.00;9.15;;;;;;;19.72;71.79;99217.41;6095580;23;20094;-83
2021/07/28 06:23:10;;;;;;;12.05;9.35;;;;;;;19.82;72.53;99222.63;6095651;23;20025;-83
2021/07/28 06:25:51;;;;;;;10.88;8.68;;;;;;;19.82;71.80;99217.28;6072212;23;20418;-82
2021/07/28 06:28:17;;;;;;;10.95;8.75;;;;;;;19.91;72.12;99223.47;6071926;23;20109;-83
2021/07/28 06:31:00;;;;;;;10.07;8.38;;;;;;;19.91;71.59;99218.97;6071944;23;20070;-83
2021/07/28 06:33:27;;;;;;;;;;;;;;;19.98;71.45;99219.19;6072417;23;20014;-83
2021/07/28 06:35:54;;;;;;;13.45;8.35;;;;;;;20.08;71.64;99218.22;6071941;23;19917;-83
2021/07/28 06:38:21;;;;;;;10.55;7.90;;;;;;;20.08;71.80;99219.06;6096134;23;20529;-83
2021/07/28 06:40:51;;;;;;;15.25;8.80;;;;;;;20.08;71.58;99219.06;6095523;23;20113;-83
2021/07/28 06:43:21;;;;;;;;;;;;;;;20.10;70.93;99222.38;6096189;23;20026;-83
2021/07/28 06:45:47;;;;;;;13.70;8.23;;;;;;;20.17;71.28;99217.22;6071694;23;19999;-83
2021/07/28 06:48:14;;;;;;;12.23;8.82;;;;;;;20.16;71.39;99221.75;6095591;23;20023;-83
2021/07/28 06:50:59;;;;;;;18.05;8.50;;;;;;;20.11;70.71;99221.38;6071780;23;20023;-83
2021/07/28 06:53:26;;;;;;;12.00;8.85;;;;;;;20.19;71.57;99220.59;6071984;23;20108;-83
2021/07/28 06:55:55;;;;;;;11.48;8.82;;;;;;;20.22;71.39;99224.75;6071682;23;20025;-83
2021/07/28 06:58:21;;;;;;;13.07;9.60;;;;;;;20.27;71.78;99217.09;6071972;23;20101;-83
2021/07/28 07:00:50;;;;;;;14.35;10.05;;;;;;;20.30;71.24;99217.59;6071627;23;20109;-83
2021/07/28 07:03:18;;;;;;;13.82;8.82;;;;;;;20.36;71.27;99225.94;6071540;23;20020;-83
2021/07/28 07:05:56;;;;;;;12.77;8.35;;;;;;;20.33;70.32;99221.75;6072014;23;20022;-83
2021/07/28 07:08:23;;;;;;;12.18;9.30;;;;;;;20.37;70.75;99223.09;6095469;23;20023;-83
2021/07/28 07:10:52;;;;;;;11.52;8.35;;;;;;;20.36;70.62;99226.78;6072207;23;20101;-82
2021/07/28 07:13:28;;;;;;;12.75;9.68;;;;;;;20.31;70.23;99218.44;6073718;23;20014;-83
2021/07/28 07:15:55;;;;;;;13.10;9.05;;;;;;;20.33;70.97;99219.09;6073539;23;20034;-82
2021/07/28 07:18:24;;;;;;;11.32;9.45;;;;;;;20.33;71.20;99216.41;6098849;23;20393;-83
2021/07/28 07:20:50;;;;;;;11.52;10.32;;;;;;;20.34;71.35;99211.91;6097925;23;20327;-83
2021/07/28 07:23:23;;;;;;;14.40;11.35;;;;;;;20.33;70.56;99210.25;6073848;23;20022;-83
2021/07/28 07:25:50;;;;;;;12.95;10.63;;;;;;;20.40;71.49;99220.13;6073641;23;20108;-83
2021/07/28 07:28:17;;;;;;;15.95;10.75;;;;;;;20.45;71.72;99224.97;6073559;23;20033;-83
2021/07/28 07:30:43;;;;;;;16.90;11.63;;;;;;;20.52;71.72;99219.81;6073810;23;20026;-84
2021/07/28 07:33:38;;;;;;;12.63;9.82;;;;;;;20.57;71.43;99228.16;6073957;23;20464;-83
2021/07/28 07:36:18;;;;;;;12.90;9.68;;;;;;;20.67;71.57;99223.47;6049538;23;20026;-83
2021/07/28 07:38:45;;;;;;;16.98;10.65;;;;;;;20.78;71.48;99222.31;6073801;23;20462;-83
2021/07/28 07:41:12;;;;;;;12.68;10.43;;;;;;;20.86;71.33;99218.78;6073693;23;20400;-83
2021/07/28 07:43:38;;;;;;;14.13;10.95;;;;;;;20.91;71.23;99219.16;6073051;23;20032;-83
2021/07/28 07:46:20;;;;;;;12.30;10.60;;;;;;;20.95;70.44;99220.50;6073079;23;20023;-83
2021/07/28 07:48:49;;;;;;;11.00;9.65;;;;;;;21.05;70.91;99214.13;6073781;23;20034;-83
2021/07/28 07:51:16;;;;;;;12.32;9.88;;;;;;;21.13;71.31;99216.81;6098540;23;20101;-83
2021/07/28 07:53:50;;;;;;;14.90;9.90;;;;;;;21.18;70.31;99214.44;6097257;23;20400;-83
2021/07/28 07:56:16;;;;;;;12.20;10.07;;;;;;;21.28;70.77;99208.06;6097384;23;20327;-83
2021/07/28 07:58:44;;;;;;;14.52;9.80;;;;;;;21.35;70.44;99215.22;6073341;23;20034;-83
2021/07/28 08:01:12;;;;;;;11.90;10.10;;;;;;;21.42;70.33;99211.88;6073614;23;20353;-83
2021/07/28 08:03:45;;;;;;;12.95;9.63;;;;;;;21.48;69.47;99209.34;6073413;23;20097;-83
2021/07/28 08:06:12;;;;;;;;;;;;;;;21.54;69.30;99212.34;6099133;23;20472;-83
2021/07/28 08:08:39;;;;;;;11.38;9.68;;;;;;;21.66;69.77;99205.59;6073046;23;19921;-83
2021/07/28 08:11:10;;;;;;;18.92;11.25;;;;;;;21.67;69.02;99211.78;6073498;23;20030;-83
2021/07/28 08:13:37;;;;;;;11.93;10.18;;;;;;;21.69;69.31;99204.41;6072997;23;20025;-83
2021/07/28 08:16:28;;;;;;;11.18;9.35;;;;;;;21.65;68.81;99206.63;6073079;23;20053;-83
2021/07/28 08:18:55;;;;;;;12.48;9.73;;;;;;;21.74;69.48;99207.44;6073113;23;20026;-83
2021/07/28 08:21:22;;;;;;;14.27;10.52;;;;;;;21.77;69.39;99214.28;6098269;23;20097;-83
2021/07/28 08:23:49;;;;;;;13.50;9.90;;;;;;;21.82;69.21;99217.28;6072969;23;20411;-83
2021/07/28 08:26:22;;;;;;;10.45;9.35;;;;;;;21.86;68.34;99205.19;6073967;23;20469;-83
2021/07/28 08:28:49;;;;;;;10.63;9.30;;;;;;;21.94;69.06;99207.84;6097073;23;20101;-84
2021/07/28 08:31:21;;;;;;;10.20;8.98;;;;;;;21.97;67.82;99207.50;6072769;23;20022;-83
2021/07/28 08:33:48;;;;;;;11.13;10.13;;;;;;;22.06;68.89;99207.44;6097878;23;20057;-83
2021/07/28 08:36:31;;;;;;;10.32;9.32;;;;;;;22.06;67.52;99204.78;6073291;23;20105;-83
2021/07/28 08:38:58;;;;;;;10.55;8.75;;;;;;;22.18;68.92;99202.50;6072834;23;20029;-82
2021/07/28 08:41:36;;;;;;;11.77;8.68;;;;;;;22.24;68.09;99208.00;6096039;23;20093;-83
2021/07/28 08:44:03;;;;;;;10.32;9.23;;;;;;;22.37;68.43;99198.53;6072496;23;20026;-83
2021/07/28 08:46:33;;;;;;;11.07;8.45;;;;;;;22.43;66.97;99205.03;6073261;23;20505;-83
2021/07/28 08:49:02;;;;;;;13.70;8.45;;;;;;;22.47;67.06;99204.50;6096859;23;20391;-83
2021/07/28 08:51:39;;;;;;;11.35;8.75;;;;;;;22.46;65.50;99200.16;6073197;23;20105;-83
2021/07/28 08:54:06;;;;;;;8.55;7.70;;;;;;;22.52;67.12;99199.44;6072999;23;20015;-83
2021/07/28 08:56:41;;;;;;;11.88;8.73;;;;;;;22.48;65.50;99198.13;6072952;23;20105;-83
2021/07/28 08:59:28;;;;;;;10.75;7.38;;;;;;;22.45;65.24;99206.53;6072662;23;20026;-83
2021/07/28 09:02:07;;;;;;;11.30;8.35;;;;;;;22.41;63.84;99199.00;6072902;23;20506;-83
2021/07/28 09:04:34;;;;;;;9.25;7.70;;;;;;;22.40;65.96;99200.88;6072506;23;20018;-83
2021/07/28 09:07:15;;;;;;;10.07;7.43;;;;;;;22.31;65.69;99212.66;6073160;23;20523;-83
2021/07/28 09:09:53;;;;;;;7.90;7.13;;;;;;;22.28;65.96;99204.97;6071804;23;20029;-83
2021/07/28 09:12:44;;;;;;;7.93;7.18;;;;;;;22.25;65.77;99204.31;6073049;23;20065;-83
2021/07/28 09:15:15;;;;;;;7.93;7.15;;;;;;;22.31;66.50;99205.44;6072217;23;20049;-83
2021/07/28 09:17:49;;;;;;;7.93;7.13;;;;;;;22.26;65.43;99192.59;6072842;23;20038;-83
2021/07/28 09:20:38;;;;;;;7.90;7.10;;;;;;;22.22;65.33;99207.38;6072526;23;20057;-83
2021/07/28 09:23:12;;;;;;;8.60;7.13;;;;;;;22.22;65.08;99210.03;6097302;23;20024;-83
2021/07/28 09:25:58;;;;;;;9.25;6.82;;;;;;;22.18;64.70;99210.56;6072611;23;20058;-84
2021/07/28 09:28:25;;;;;;;9.18;7.43;;;;;;;22.22;66.54;99202.00;6072904;23;20498;-84
2021/07/28 09:31:30;;;;;;;9.40;7.65;;;;;;;22.19;64.10;99212.22;6096612;23;20482;-84
2021/07/28 09:34:10;;;;;;;8.90;6.93;;;;;;;22.27;66.15;99201.44;6071747;23;20030;-85
2021/07/28 09:36:39;;;;;;;10.10;7.43;;;;;;;22.37;67.81;99193.19;6095936;23;20089;-84
2021/07/28 09:39:06;;;;;;;8.45;7.53;;;;;;;22.50;68.50;99192.59;6072439;23;20069;-84
2021/07/28 09:41:49;;;;;;;7.90;6.78;;;;;;;22.67;67.55;99195.16;6009433;23;20091;-84
2021/07/28 09:44:27;;;;;;;8.07;7.25;;;;;;;22.79;65.05;99188.34;5985574;23;20051;-84
2021/07/28 09:47:22;;;;;;;7.93;6.88;;;;;;;22.91;63.92;99191.41;5986232;23;20543;-83
2021/07/28 09:52:52;;;;;;;6.57;5.97;;;;;;;23.10;65.09;99194.59;6009305;23;20106;-83
2021/07/28 09:55:27;;;;;;;8.75;7.13;;;;;;;23.11;63.58;99193.59;5985872;23;20038;-83
2021/07/28 09:58:06;;;;;;;8.68;7.00;;;;;;;23.16;63.69;99191.19;5985819;23;20448;-83
2021/07/28 10:00:33;;;;;;;8.32;6.50;;;;;;;23.24;64.41;99191.09;6051301;23;20036;-83
2021/07/28 10:03:16;;;;;;;6.53;5.82;;;;;;;23.25;63.38;99192.75;6072190;23;20031;-83
2021/07/28 10:05:43;;;;;;;7.65;5.70;;;;;;;23.38;65.35;99188.63;6071948;23;20027;-83
2021/07/28 10:08:25;;;;;;;8.23;6.07;;;;;;;23.44;64.31;99195.94;6072021;23;20022;-84
2021/07/28 10:10:51;;;;;;;7.10;6.40;;;;;;;23.59;64.49;99197.78;6097480;23;20110;-84
2021/07/28 10:13:34;;;;;;;6.50;5.90;;;;;;;23.59;62.08;99197.78;6072396;23;20058;-83
2021/07/28 10:16:00;;;;;;;8.30;5.80;;;;;;;23.66;63.41;99204.09;6071801;23;20029;-84
2021/07/28 10:18:27;;;;;;;10.38;6.10;;;;;;;23.65;63.71;99197.88;6095943;23;20073;-84
2021/07/28 10:20:59;;;;;;;7.55;6.32;;;;;;;23.63;61.15;99205.25;6072141;23;20497;-85
2021/07/28 10:23:26;;;;;;;6.88;5.57;;;;;;;23.67;63.24;99192.31;6095730;23;20022;-84
2021/07/28 10:26:03;;;;;;;8.30;5.60;;;;;;;23.67;62.81;99201.19;6072276;23;20494;-84
2021/07/28 10:28:30;;;;;;;5.43;4.95;;;;;;;23.74;62.99;99192.38;6072076;23;20078;-85
2021/07/28 10:31:16;;;;;;;5.85;5.25;;;;;;;23.76;61.87;99185.81;6096032;23;20358;-84
2021/07/28 10:33:54;;;;;;;5.47;4.97;;;;;;;23.86;62.65;99187.34;6072097;23;20029;-84
2021/07/28 10:36:40;;;;;;;5.22;4.72;;;;;;;23.98;63.76;99177.78;6072004;23;20110;-84
2021/07/28 10:39:07;;;;;;;7.38;4.90;;;;;;;24.13;63.61;99185.00;6095660;23;20089;-84
2021/07/28 10:41:52;;;;;;;4.95;4.40;;;;;;;24.22;61.80;99186.53;6071978;23;20075;-84
2021/07/28 10:44:22;;;;;;;6.82;4.40;;;;;;;24.38;62.88;99173.88;6071571;23;20089;-84
2021/07/28 10:47:06;;;;;;;3.92;3.60;;;;;;;24.50;62.18;99175.03;6073988;23;20106;-84
2021/07/28 10:49:35;;;;;;;4.22;3.70;;;;;;;24.68;62.19;99168.34;6098976;23;20403;-84
2021/07/28 10:52:37;;;;;;;4.35;3.70;;;;;;;24.83;60.05;99176.31;6097878;23;20061;-84
2021/07/28 10:55:04;;;;;;;4.97;3.65;;;;;;;25.05;62.25;99166.38;5959271;24;20107;-84
2021/07/28 10:57:34;;;;;;;4.18;3.65;;;;;;;25.24;59.76;99170.19;5959562;24;20028;-84
2021/07/28 11:00:06;;;;;;;5.95;3.90;;;;;;;25.41;60.77;99166.34;5960058;24;20028;-83
2021/07/28 11:02:58;;;;;;;5.60;4.18;;;;;;;25.49;59.13;99169.69;5982707;24;20413;-84
2021/07/28 11:05:28;;;;;;;3.90;3.50;;;;;;;25.69;61.00;99171.69;6007573;23;20023;-84
2021/07/28 11:08:13;;;;;;;7.55;3.78;;;;;;;25.91;57.77;99165.31;6073727;23;20030;-84
2021/07/28 11:11:08;;;;;;;7.05;3.90;;;;;;;26.27;59.67;99164.19;6073785;23;20026;-85
2021/07/28 11:13:35;;;;;;;5.63;3.90;;;;;;;26.65;59.91;99160.88;6073710;23;20113;-84
2021/07/28 11:16:09;;;;;;;5.20;4.03;;;;;;;26.88;56.92;99164.19;6097348;23;20109;-84
2021/07/28 11:18:43;;;;;;;4.78;4.03;;;;;;;27.06;56.58;99156.28;6073713;23;20108;-84
2021/07/28 11:21:31;;;;;;;4.32;3.92;;;;;;;27.27;57.32;99158.94;6073564;23;20408;-84
2021/07/28 11:24:00;;;;;;;5.90;3.63;;;;;;;27.60;57.84;99162.56;6073319;23;20097;-84
2021/07/28 11:27:10;;;;;;;4.72;3.90;;;;;;;27.80;54.63;99154.38;6074112;23;20098;-85
2021/07/28 11:29:37;;;;;;;4.68;4.18;;;;;;;27.93;52.99;99153.50;6097513;23;20480;-84
2021/07/28 11:32:07;;;;;;;4.13;3.58;;;;;;;27.83;51.09;99167.47;6073425;23;20025;-84
2021/07/28 11:34:55;;;;;;;4.55;3.53;;;;;;;27.55;48.69;99164.03;6075601;23;20781;-85
2021/07/28 11:37:49;;;;;;;7.15;4.22;;;;;;;27.31;51.87;99168.28;6073870;23;20032;-84
2021/07/28 11:40:16;;;;;;;4.15;3.80;;;;;;;27.23;53.53;99161.25;6073269;23;20021;-85
2021/07/28 11:42:47;;;;;;;4.43;3.85;;;;;;;27.18;53.23;99159.16;6073422;23;20014;-85
2021/07/28 11:45:15;;;;;;;7.22;4.20;;;;;;;27.35;57.13;99153.31;6073174;23;20390;-85
2021/07/28 11:47:57;;;;;;;4.70;3.97;;;;;;;27.67;55.25;99139.91;6073427;23;20097;-85
2021/07/28 11:50:24;;;;;;;6.63;3.87;;;;;;;28.14;56.21;99151.50;6097558;23;20121;-85
2021/07/28 11:56:31;;;;;;;6.70;3.63;;;;;;;29.17;53.53;99147.75;6098406;23;20053;-85
2021/07/28 11:59:03;;;;;;;3.15;2.80;;;;;;;29.43;49.32;99143.91;6073746;23;20383;-85
2021/07/28 12:01:34;;;;;;;4.37;3.30;;;;;;;29.67;49.04;99152.16;6073612;23;20320;-86
2021/07/28 12:04:23;;;;;;;3.20;2.90;;;;;;;29.89;49.26;99146.25;6072831;23;20046;-85
2021/07/28 12:06:54;;;;;;;3.17;2.72;;;;;;;30.24;49.96;99148.25;6073787;23;20077;-85
2021/07/28 12:09:34;;;;;;;4.70;3.00;;;;;;;30.47;46.23;99143.94;6073212;23;20029;-85
2021/07/28 12:12:06;;;;;;;2.75;2.50;;;;;;;30.74;46.95;99146.25;6073557;23;20097;-85